createdAt,value
2017-08-25T00:01:26.790Z,60.65
2017-08-25T00:03:53.224Z,60.65
2017-08-25T00:06:19.656Z,60.46
2017-08-25T00:08:46.095Z,60.45
2017-08-25T00:11:12.529Z,60.74
2017-08-25T00:13:38.969Z,60.49
2017-08-25T00:16:05.502Z,60.36
2017-08-25T00:18:31.935Z,60.31
2017-08-25T00:20:58.373Z,60.46
2017-08-25T00:23:24.808Z,60.78
2017-08-25T00:25:51.342Z,60.85
2017-08-25T00:28:17.778Z,60.89
2017-08-25T00:30:44.213Z,60.42
2017-08-25T00:33:10.687Z,61.04
2017-08-25T00:35:37.205Z,61.45
2017-08-25T00:38:03.620Z,61.45
2017-08-25T00:40:30.040Z,61.30
2017-08-25T00:42:56.492Z,61.51
2017-08-25T00:45:22.979Z,61.39
2017-08-25T00:47:49.360Z,61.25
2017-08-25T00:50:15.795Z,61.25
2017-08-25T00:52:42.186Z,61.26
2017-08-25T00:55:08.625Z,61.14
2017-08-25T00:57:35.097Z,61.12
2017-08-25T01:00:01.535Z,61.06
2017-08-25T01:02:27.969Z,61.03
2017-08-25T01:04:54.506Z,61.17
2017-08-25T01:07:20.896Z,61.52
2017-08-25T01:09:47.378Z,61.39
2017-08-25T01:12:13.855Z,61.21
2017-08-25T01:14:40.350Z,61.02
2017-08-25T01:17:06.784Z,61.02
2017-08-25T01:19:33.421Z,61.17
2017-08-25T01:21:59.860Z,61.52
2017-08-25T01:24:26.377Z,61.82
2017-08-25T01:26:52.819Z,62.18
2017-08-25T01:29:19.220Z,62.75
2017-08-25T01:31:45.587Z,63.04
2017-08-25T01:34:12.033Z,62.88
2017-08-25T01:36:38.470Z,62.91
2017-08-25T01:39:04.906Z,63.31
2017-08-25T01:41:31.339Z,63.51
2017-08-25T01:43:57.695Z,63.99
2017-08-25T01:46:24.184Z,64.54
2017-08-25T01:48:50.648Z,64.91
2017-08-25T01:51:17.076Z,65.00
2017-08-25T01:53:43.468Z,64.79
2017-08-25T01:56:09.949Z,64.51
2017-08-25T01:58:36.384Z,64.39
2017-08-25T02:01:02.773Z,64.00
2017-08-25T02:03:29.200Z,63.57
2017-08-25T02:05:55.686Z,63.49
2017-08-25T02:08:22.120Z,64.12
2017-08-25T02:10:48.518Z,64.51
2017-08-25T02:13:14.950Z,63.94
2017-08-25T02:15:41.375Z,63.48
2017-08-25T02:18:07.810Z,63.50
2017-08-25T02:20:34.290Z,63.88
2017-08-25T02:23:00.685Z,63.79
2017-08-25T02:25:27.198Z,64.12
2017-08-25T02:27:53.666Z,64.57
2017-08-25T02:30:20.137Z,64.88
2017-08-25T02:32:46.573Z,65.09
2017-08-25T02:35:13.109Z,64.95
2017-08-25T02:37:39.546Z,64.79
2017-08-25T02:40:05.996Z,64.30
2017-08-25T02:42:32.483Z,64.11
2017-08-25T02:44:58.928Z,64.22
2017-08-25T02:47:25.370Z,64.31
2017-08-25T02:49:51.772Z,64.42
2017-08-25T02:52:18.298Z,64.52
2017-08-25T02:54:44.792Z,64.43
2017-08-25T02:57:11.179Z,64.31
2017-08-25T02:59:37.663Z,64.25
2017-08-25T03:02:04.220Z,64.14
2017-08-25T03:04:30.718Z,63.79
2017-08-25T03:06:57.160Z,63.58
2017-08-25T03:09:23.606Z,63.38
2017-08-25T03:11:50.044Z,63.39
2017-08-25T03:14:16.478Z,63.21
2017-08-25T03:16:42.914Z,63.29
2017-08-25T03:19:09.346Z,63.81
2017-08-25T03:21:35.780Z,63.89
2017-08-25T03:24:02.174Z,63.81
2017-08-25T03:26:28.654Z,63.54
2017-08-25T03:28:55.067Z,63.22
2017-08-25T03:31:21.522Z,63.07
2017-08-25T03:33:47.957Z,63.11
2017-08-25T03:36:14.495Z,63.41
2017-08-25T03:38:40.930Z,63.44
2017-08-25T03:41:07.327Z,63.37
2017-08-25T03:43:33.798Z,63.37
2017-08-25T03:46:00.335Z,63.54
2017-08-25T03:48:26.769Z,63.72
2017-08-25T03:50:53.157Z,64.58
2017-08-25T03:53:19.639Z,64.88
2017-08-25T03:55:46.132Z,64.35
2017-08-25T03:58:12.580Z,64.08
2017-08-25T04:00:39.015Z,64.01
2017-08-25T04:03:05.481Z,64.01
2017-08-25T04:05:32.015Z,64.43
2017-08-25T04:07:58.456Z,64.79
2017-08-25T04:10:24.890Z,64.44
2017-08-25T04:12:51.325Z,64.24
2017-08-25T04:15:17.847Z,63.69
2017-08-25T04:17:44.297Z,63.88
2017-08-25T04:20:10.735Z,63.80
2017-08-25T04:22:37.165Z,63.07
2017-08-25T04:25:03.632Z,62.75
2017-08-25T04:27:30.163Z,62.89
2017-08-25T04:29:56.574Z,62.73
2017-08-25T04:32:22.960Z,62.28
2017-08-25T04:34:49.441Z,61.93
2017-08-25T04:37:15.879Z,61.63
2017-08-25T04:39:42.474Z,61.19
2017-08-25T04:42:08.848Z,60.93
2017-08-25T04:44:35.348Z,60.51
2017-08-25T04:47:01.772Z,60.28
2017-08-25T04:49:28.256Z,60.05
2017-08-25T04:51:54.690Z,59.96
2017-08-25T04:54:21.124Z,59.88
2017-08-25T04:56:47.560Z,59.44
2017-08-25T04:59:13.999Z,59.59
2017-08-25T05:01:40.532Z,59.37
2017-08-25T05:04:06.968Z,59.61
2017-08-25T05:06:33.403Z,59.89
2017-08-25T05:08:59.834Z,59.68
2017-08-25T05:11:26.295Z,59.77
2017-08-25T05:13:52.809Z,59.62
2017-08-25T05:16:19.346Z,59.67
2017-08-25T05:18:45.883Z,58.98
2017-08-25T05:21:12.294Z,58.88
2017-08-25T05:23:38.737Z,58.71
2017-08-25T05:26:05.293Z,58.45
2017-08-25T05:28:31.729Z,57.84
2017-08-25T05:30:58.162Z,57.32
2017-08-25T05:33:24.697Z,57.00
2017-08-25T05:35:51.543Z,56.38
2017-08-25T05:38:18.164Z,55.56
2017-08-25T05:40:44.828Z,55.67
2017-08-25T05:43:11.578Z,55.67
2017-08-25T05:45:38.056Z,54.48
2017-08-25T05:48:04.636Z,54.37
2017-08-25T05:50:31.279Z,54.64
2017-08-25T05:52:57.817Z,55.21
2017-08-25T05:55:24.363Z,53.68
2017-08-25T05:57:50.789Z,52.86
2017-08-25T06:00:17.315Z,52.89
2017-08-25T06:02:43.693Z,52.79
2017-08-25T06:05:10.161Z,52.61
2017-08-25T06:07:36.629Z,52.60
2017-08-25T06:10:03.377Z,52.27
2017-08-25T06:12:29.913Z,52.32
2017-08-25T06:14:56.553Z,52.20
2017-08-25T06:17:23.999Z,51.95
2017-08-25T06:19:50.469Z,51.46
2017-08-25T06:22:16.948Z,51.10
2017-08-25T06:24:43.623Z,50.93
2017-08-25T06:27:10.160Z,50.88
2017-08-25T06:29:36.543Z,50.73
2017-08-25T06:32:03.257Z,49.95
2017-08-25T06:34:29.875Z,49.42
2017-08-25T06:36:56.512Z,49.21
2017-08-25T06:39:22.999Z,49.38
2017-08-25T06:41:49.483Z,49.00
2017-08-25T06:44:15.972Z,48.15
2017-08-25T06:46:42.520Z,47.98
2017-08-25T06:49:08.957Z,48.15
2017-08-25T06:51:35.632Z,47.93
2017-08-25T06:54:02.174Z,47.97
2017-08-25T06:56:28.709Z,47.36
2017-08-25T06:58:55.142Z,47.03
2017-08-25T07:01:21.577Z,47.14
2017-08-25T07:03:48.012Z,47.12
2017-08-25T07:06:14.513Z,46.81
2017-08-25T07:08:40.936Z,47.26
2017-08-25T07:11:07.419Z,46.97
2017-08-25T07:13:34.128Z,46.66
2017-08-25T07:16:00.648Z,46.42
2017-08-25T07:18:27.119Z,46.37
2017-08-25T07:20:53.568Z,46.36
2017-08-25T07:23:20.309Z,46.01
2017-08-25T07:25:46.846Z,45.70
2017-08-25T07:28:13.282Z,45.98
2017-08-25T07:30:40.073Z,45.79
2017-08-25T07:33:06.560Z,45.83
2017-08-25T07:35:33.097Z,45.63
2017-08-25T07:38:00.560Z,45.32
2017-08-25T07:40:27.044Z,45.35
2017-08-25T07:42:53.506Z,45.00
2017-08-25T07:45:20.171Z,44.60
2017-08-25T07:47:46.704Z,44.40
2017-08-25T07:50:13.088Z,44.06
2017-08-25T07:52:39.677Z,43.39
2017-08-25T07:55:06.215Z,43.52
2017-08-25T07:57:32.751Z,43.05
2017-08-25T07:59:59.595Z,41.90
2017-08-25T08:02:26.112Z,40.48
2017-08-25T08:04:52.670Z,39.98
2017-08-25T08:07:19.260Z,39.50
2017-08-25T08:09:45.660Z,39.06
2017-08-25T08:12:12.077Z,38.26
2017-08-25T08:14:38.818Z,39.53
2017-08-25T08:17:05.356Z,40.49
2017-08-25T08:19:31.894Z,40.04
2017-08-25T08:21:58.713Z,39.63
2017-08-25T08:24:25.172Z,39.00
2017-08-25T08:26:51.608Z,38.95
2017-08-25T08:29:18.084Z,38.82
2017-08-25T08:31:44.580Z,35.36
2017-08-25T08:34:11.116Z,35.72
2017-08-25T08:36:37.662Z,35.05
2017-08-25T08:39:04.192Z,34.92
2017-08-25T08:41:30.624Z,34.32
2017-08-25T08:43:57.267Z,34.37
2017-08-25T08:46:23.760Z,34.32
2017-08-25T08:48:50.189Z,34.00
2017-08-25T08:51:16.881Z,33.72
2017-08-25T08:53:43.310Z,34.08
2017-08-25T08:56:09.851Z,34.05
2017-08-25T08:58:36.595Z,33.97
2017-08-25T09:01:03.129Z,33.80
2017-08-25T09:03:29.687Z,32.37
2017-08-25T09:05:56.204Z,31.88
2017-08-25T09:08:22.741Z,31.56
2017-08-25T09:10:49.586Z,30.98
2017-08-25T09:13:16.225Z,31.60
2017-08-25T09:15:42.712Z,31.10
2017-08-25T09:18:09.196Z,30.72
2017-08-25T09:20:35.939Z,31.42
2017-08-25T09:23:02.374Z,30.94
2017-08-25T09:25:28.838Z,30.83
2017-08-25T09:27:55.339Z,31.16
2017-08-25T09:30:22.282Z,31.01
2017-08-25T09:32:48.727Z,31.06
2017-08-25T09:35:15.271Z,30.88
2017-08-25T09:37:42.113Z,30.97
2017-08-25T09:40:08.548Z,31.06
2017-08-25T09:42:34.932Z,31.47
2017-08-25T09:45:01.799Z,31.20
2017-08-25T09:47:28.256Z,30.56
2017-08-25T09:49:55.412Z,30.64
2017-08-25T09:52:21.864Z,30.45
2017-08-25T09:54:48.364Z,30.54
2017-08-25T09:57:14.936Z,31.00
2017-08-25T09:59:42.277Z,30.91
2017-08-25T10:02:08.845Z,30.50
2017-08-25T10:04:35.457Z,31.05
2017-08-25T10:07:01.993Z,30.03
2017-08-25T10:09:28.530Z,29.88
2017-08-25T10:11:55.271Z,30.36
2017-08-25T10:14:21.705Z,29.85
2017-08-25T10:16:48.140Z,29.24
2017-08-25T10:19:15.143Z,29.92
2017-08-25T10:21:41.723Z,30.37
2017-08-25T10:24:08.368Z,30.22
2017-08-25T10:26:34.966Z,30.35
2017-08-25T10:29:01.646Z,29.88
2017-08-25T10:31:28.296Z,29.25
2017-08-25T10:33:56.088Z,28.88
2017-08-25T10:36:22.919Z,28.93
2017-08-25T10:38:49.332Z,29.25
2017-08-25T10:41:16.073Z,29.65
2017-08-25T10:43:42.611Z,28.38
2017-08-25T10:46:09.255Z,28.29
2017-08-25T10:48:36.381Z,28.20
2017-08-25T10:51:03.588Z,28.54
2017-08-25T10:53:31.351Z,28.86
2017-08-25T10:55:58.894Z,28.84
2017-08-25T10:58:26.831Z,28.71
2017-08-25T11:00:53.297Z,28.77
2017-08-25T11:03:20.134Z,28.84
2017-08-25T11:05:46.671Z,29.11
2017-08-25T11:08:13.620Z,28.40
2017-08-25T11:10:40.464Z,28.99
2017-08-25T11:13:07.202Z,28.96
2017-08-25T11:15:33.636Z,29.40
2017-08-25T11:18:00.475Z,28.56
2017-08-25T11:20:26.914Z,28.17
2017-08-25T11:22:53.459Z,28.26
2017-08-25T11:25:20.404Z,28.70
2017-08-25T11:27:46.941Z,27.92
2017-08-25T11:30:13.496Z,27.17
2017-08-25T11:32:40.371Z,27.40
2017-08-25T11:35:06.960Z,26.18
2017-08-25T11:37:33.503Z,25.19
2017-08-25T11:40:00.496Z,24.31
2017-08-25T11:42:26.932Z,24.17
2017-08-25T11:44:53.518Z,23.29
2017-08-25T11:47:20.157Z,23.52
2017-08-25T11:49:47.564Z,22.71
2017-08-25T11:52:14.004Z,21.75
2017-08-25T11:54:40.597Z,21.60
2017-08-25T11:57:07.126Z,20.95
2017-08-25T11:59:33.560Z,20.55
2017-08-25T12:02:00.406Z,19.58
2017-08-25T12:04:26.840Z,19.47
2017-08-25T12:06:53.279Z,19.13
2017-08-25T12:09:19.728Z,19.06
2017-08-25T12:11:46.144Z,19.08
2017-08-25T12:14:12.581Z,18.84
2017-08-25T12:16:39.629Z,18.58
2017-08-25T12:19:06.065Z,18.58
2017-08-25T12:21:32.600Z,18.40
2017-08-25T12:23:59.240Z,18.31
2017-08-25T12:26:26.088Z,17.91
2017-08-25T12:28:52.521Z,17.78
2017-08-25T12:31:19.149Z,17.72
2017-08-25T12:33:45.697Z,17.22
2017-08-25T12:36:12.184Z,17.30
2017-08-25T12:38:39.029Z,17.04
2017-08-25T12:41:05.514Z,17.77
2017-08-25T12:43:31.952Z,17.90
2017-08-25T12:45:59.098Z,17.65
2017-08-25T12:48:25.535Z,17.59
2017-08-25T12:50:51.971Z,17.26
2017-08-25T12:53:18.817Z,17.02
2017-08-25T12:55:45.353Z,16.14
2017-08-25T12:58:11.786Z,15.75
2017-08-25T13:00:38.631Z,15.40
2017-08-25T13:03:05.190Z,15.30
2017-08-25T13:05:32.246Z,15.33
2017-08-25T13:07:59.144Z,15.73
2017-08-25T13:10:25.587Z,15.14
2017-08-25T13:12:52.057Z,14.59
2017-08-25T13:15:18.571Z,14.08
2017-08-25T13:17:45.927Z,14.19
2017-08-25T13:20:12.363Z,13.96
2017-08-25T13:22:38.797Z,13.78
2017-08-25T13:25:05.549Z,13.86
2017-08-25T13:27:31.974Z,14.26
2017-08-25T13:29:59.126Z,14.04
2017-08-25T13:32:25.513Z,13.91
2017-08-25T13:34:51.913Z,13.76
2017-08-25T13:37:18.530Z,14.09
2017-08-25T13:39:44.968Z,14.30
2017-08-25T13:42:11.505Z,14.21
2017-08-25T13:44:38.050Z,14.00
2017-08-25T13:47:04.939Z,14.13
2017-08-25T13:49:31.443Z,14.06
2017-08-25T13:51:57.962Z,14.41
2017-08-25T13:54:24.504Z,14.39
2017-08-25T13:56:50.987Z,15.00
2017-08-25T13:59:17.414Z,16.34
2017-08-25T14:01:43.957Z,17.22
2017-08-25T14:04:10.462Z,17.96
2017-08-25T14:06:36.934Z,18.60
2017-08-25T14:09:03.413Z,19.12
2017-08-25T14:11:29.951Z,19.63
2017-08-25T14:13:57.161Z,20.26
2017-08-25T14:16:23.741Z,20.82
2017-08-25T14:18:50.177Z,21.71
2017-08-25T14:21:16.612Z,22.20
2017-08-25T14:23:43.559Z,22.41
2017-08-25T14:26:10.047Z,23.09
2017-08-25T14:28:36.530Z,23.11
2017-08-25T14:31:03.197Z,23.32
2017-08-25T14:33:29.705Z,23.58
2017-08-25T14:35:56.168Z,23.51
2017-08-25T14:38:23.088Z,23.92
2017-08-25T14:40:49.577Z,24.18
2017-08-25T14:43:16.775Z,24.55
2017-08-25T14:45:43.622Z,24.66
2017-08-25T14:48:10.142Z,24.99
2017-08-25T14:50:36.695Z,25.10
2017-08-25T14:53:03.846Z,25.19
2017-08-25T14:55:30.385Z,25.29
2017-08-25T14:57:56.824Z,26.04
2017-08-25T15:00:23.257Z,26.01
2017-08-25T15:02:50.075Z,25.87
2017-08-25T15:05:16.587Z,25.38
2017-08-25T15:07:43.029Z,25.71
2017-08-25T15:10:10.139Z,25.90
2017-08-25T15:12:36.657Z,26.64
2017-08-25T15:15:03.197Z,26.66
2017-08-25T15:17:31.493Z,26.83
2017-08-25T15:19:58.931Z,26.44
2017-08-25T15:22:28.870Z,26.35
2017-08-25T15:24:58.832Z,27.19
2017-08-25T15:27:30.561Z,27.13
2017-08-25T15:30:07.588Z,27.03
2017-08-25T15:35:18.901Z,27.59
2017-08-25T15:37:45.552Z,27.51
2017-08-25T15:40:11.962Z,27.67
2017-08-25T15:42:38.624Z,27.37
2017-08-25T15:45:06.089Z,27.53
2017-08-25T15:47:32.621Z,27.82
2017-08-25T15:49:59.568Z,28.10
2017-08-25T15:52:26.818Z,28.60
2017-08-25T15:54:53.358Z,28.53
2017-08-25T15:57:19.895Z,28.73
2017-08-25T15:59:46.330Z,28.06
2017-08-25T16:02:12.765Z,28.25
2017-08-25T16:04:39.507Z,28.89
2017-08-25T16:07:05.882Z,28.91
2017-08-25T16:09:32.332Z,28.67
2017-08-25T16:11:58.801Z,29.24
2017-08-25T16:14:25.225Z,29.48
2017-08-25T16:16:51.635Z,29.51
2017-08-25T16:19:18.103Z,29.89
2017-08-25T16:21:44.859Z,29.99
2017-08-25T16:24:11.294Z,30.32
2017-08-25T16:26:37.730Z,30.42
2017-08-25T16:29:04.115Z,29.97
2017-08-25T16:31:30.599Z,30.37
2017-08-25T16:33:57.443Z,30.55
2017-08-25T16:36:24.002Z,30.64
2017-08-25T16:38:50.437Z,30.99
2017-08-25T16:41:16.940Z,31.54
2017-08-25T16:43:43.396Z,32.26
2017-08-25T16:46:09.925Z,32.18
2017-08-25T16:48:36.344Z,32.31
2017-08-25T16:51:02.960Z,32.36
2017-08-25T16:53:29.434Z,32.79
2017-08-25T16:55:55.937Z,33.22
2017-08-25T16:58:22.390Z,33.23
2017-08-25T17:00:48.833Z,33.42
2017-08-25T17:03:15.483Z,33.57
2017-08-25T17:05:42.019Z,34.77
2017-08-25T17:08:08.415Z,34.82
2017-08-25T17:10:34.786Z,34.99
2017-08-25T17:13:01.176Z,35.20
2017-08-25T17:15:27.643Z,36.50
2017-08-25T17:17:54.093Z,36.50
2017-08-25T17:20:20.478Z,36.51
2017-08-25T17:22:47.325Z,36.29
2017-08-25T17:25:13.805Z,36.41
2017-08-25T17:27:40.195Z,36.81
2017-08-25T17:30:06.675Z,37.52
2017-08-25T17:32:33.417Z,37.66
2017-08-25T17:34:59.913Z,37.58
2017-08-25T17:37:26.389Z,37.80
2017-08-25T17:39:52.822Z,38.04
2017-08-25T17:42:19.259Z,38.38
2017-08-25T17:44:45.692Z,38.60
2017-08-25T17:47:12.129Z,38.85
2017-08-25T17:49:38.563Z,40.14
2017-08-25T17:52:05.155Z,41.21
2017-08-25T17:54:31.629Z,41.11
2017-08-25T17:56:58.073Z,41.30
2017-08-25T17:59:24.815Z,41.13
2017-08-25T18:01:51.200Z,40.41
2017-08-25T18:04:18.095Z,40.24
2017-08-25T18:06:44.529Z,40.83
2017-08-25T18:09:10.966Z,41.50
2017-08-25T18:11:37.400Z,41.11
2017-08-25T18:14:03.834Z,40.65
2017-08-25T18:16:30.372Z,41.22
2017-08-25T18:18:56.806Z,40.40
2017-08-25T18:21:24.061Z,40.94
2017-08-25T18:23:50.495Z,41.96
2017-08-25T18:26:16.993Z,41.48
2017-08-25T18:28:43.365Z,41.87
2017-08-25T18:31:09.803Z,42.09
2017-08-25T18:33:36.639Z,42.51
2017-08-25T18:36:03.183Z,43.33
2017-08-25T18:38:29.617Z,43.25
2017-08-25T18:40:56.054Z,43.51
2017-08-25T18:43:22.541Z,43.86
2017-08-25T18:45:48.982Z,44.70
2017-08-25T18:48:15.446Z,45.10
2017-08-25T18:50:41.888Z,45.58
2017-08-25T18:53:08.331Z,45.85
2017-08-25T18:55:34.868Z,45.95
2017-08-25T18:58:01.255Z,46.15
2017-08-25T19:00:27.605Z,47.24
2017-08-25T19:02:54.051Z,47.12
2017-08-25T19:05:20.605Z,46.81
2017-08-25T19:07:46.992Z,46.68
2017-08-25T19:10:13.474Z,46.94
2017-08-25T19:12:39.871Z,46.50
2017-08-25T19:15:06.345Z,46.44
2017-08-25T19:17:32.779Z,47.11
2017-08-25T19:19:59.215Z,46.20
2017-08-25T19:22:25.649Z,46.46
2017-08-25T19:24:52.160Z,46.90
2017-08-25T19:27:18.622Z,47.01
2017-08-25T19:29:45.000Z,46.96
2017-08-25T19:32:11.492Z,46.86
2017-08-25T19:34:38.647Z,46.74
2017-08-25T19:37:05.034Z,46.52
2017-08-25T19:39:31.616Z,46.83
2017-08-25T19:41:58.051Z,47.02
2017-08-25T19:44:24.505Z,47.08
2017-08-25T19:46:50.926Z,47.18
2017-08-25T19:49:17.358Z,47.40
2017-08-25T19:51:44.509Z,47.68
2017-08-25T19:54:11.001Z,48.18
2017-08-25T19:56:37.437Z,48.69
2017-08-25T19:59:03.881Z,48.86
2017-08-25T20:01:30.349Z,48.68
2017-08-25T20:03:56.786Z,48.63
2017-08-25T20:06:23.321Z,48.77
2017-08-25T20:08:49.757Z,49.27
2017-08-25T20:11:16.190Z,49.53
2017-08-25T20:13:42.580Z,49.80
2017-08-25T20:16:09.016Z,50.06
2017-08-25T20:18:35.495Z,50.31
2017-08-25T20:21:01.879Z,50.51
2017-08-25T20:23:28.774Z,50.56
2017-08-25T20:25:55.312Z,50.68
2017-08-25T20:28:21.747Z,50.96
2017-08-25T20:30:48.184Z,50.98
2017-08-25T20:33:14.617Z,50.91
2017-08-25T20:35:41.107Z,50.86
2017-08-25T20:38:07.486Z,51.16
2017-08-25T20:40:33.876Z,51.83
2017-08-25T20:43:00.307Z,51.98
2017-08-25T20:45:27.612Z,52.31
2017-08-25T20:47:54.046Z,52.31
2017-08-25T20:50:20.479Z,52.60
2017-08-25T20:52:46.918Z,52.74
2017-08-25T20:55:13.403Z,52.66
2017-08-25T20:57:39.884Z,52.88
2017-08-25T21:00:06.328Z,53.20
2017-08-25T21:02:32.758Z,53.17
2017-08-25T21:04:59.264Z,53.32
2017-08-25T21:07:25.728Z,53.35
2017-08-25T21:09:52.116Z,53.22
2017-08-25T21:12:18.598Z,53.35
2017-08-25T21:14:45.135Z,53.55
2017-08-25T21:17:11.572Z,53.86
2017-08-25T21:19:38.110Z,54.03
2017-08-25T21:22:04.544Z,54.07
2017-08-25T21:24:31.800Z,54.39
2017-08-25T21:26:58.334Z,54.49
2017-08-25T21:29:24.815Z,54.85
2017-08-25T21:31:51.305Z,55.21
2017-08-25T21:34:17.744Z,55.19
2017-08-25T21:36:44.181Z,55.32
2017-08-25T21:39:10.613Z,55.21
2017-08-25T21:41:37.004Z,55.40
2017-08-25T21:44:03.481Z,55.44
2017-08-25T21:46:30.020Z,55.46
2017-08-25T21:48:56.459Z,55.50
2017-08-25T21:51:22.891Z,55.58
2017-08-25T21:53:49.324Z,55.44
2017-08-25T21:56:15.862Z,55.65
2017-08-25T21:58:42.295Z,55.79
2017-08-25T22:01:08.730Z,56.07
2017-08-25T22:03:35.165Z,56.13
2017-08-25T22:06:01.701Z,56.04
2017-08-25T22:08:28.137Z,55.77
2017-08-25T22:10:54.540Z,56.21
2017-08-25T22:13:20.912Z,56.05
2017-08-25T22:15:47.446Z,56.39
2017-08-25T22:18:13.844Z,56.75
2017-08-25T22:20:40.310Z,57.07
2017-08-25T22:23:06.746Z,57.03
2017-08-25T22:25:33.286Z,57.10
2017-08-25T22:27:59.647Z,56.78
2017-08-25T22:30:26.130Z,56.83
2017-08-25T22:32:53.512Z,56.95
2017-08-25T22:35:20.048Z,57.00
2017-08-25T22:37:46.481Z,57.01
2017-08-25T22:40:12.940Z,57.10
2017-08-25T22:42:39.352Z,57.46
2017-08-25T22:45:05.889Z,57.38
2017-08-25T22:47:32.275Z,57.54
2017-08-25T22:49:59.580Z,57.54
2017-08-25T22:52:26.013Z,57.68
2017-08-25T22:54:52.522Z,57.83
2017-08-25T22:57:19.600Z,57.87
2017-08-25T22:59:46.096Z,58.01
2017-08-25T23:02:12.469Z,58.07
2017-08-25T23:04:38.962Z,57.99
2017-08-25T23:07:05.444Z,58.45
2017-08-25T23:09:31.876Z,58.73
2017-08-25T23:11:59.132Z,58.67
2017-08-25T23:14:25.565Z,58.37
2017-08-25T23:16:51.955Z,58.78
2017-08-25T23:19:18.541Z,59.11
2017-08-25T23:21:44.997Z,59.41
2017-08-25T23:24:11.407Z,59.55
2017-08-25T23:26:37.843Z,59.27
2017-08-25T23:29:04.380Z,59.27
2017-08-25T23:31:30.815Z,59.07
2017-08-25T23:33:57.251Z,58.97
2017-08-25T23:36:23.788Z,59.52
2017-08-25T23:38:50.223Z,60.10
2017-08-25T23:41:16.618Z,60.28
2017-08-25T23:43:43.054Z,60.47
2017-08-25T23:46:09.570Z,60.05
2017-08-25T23:48:36.063Z,59.95
2017-08-25T23:51:03.213Z,60.21
2017-08-25T23:53:29.652Z,60.16
2017-08-25T23:55:56.188Z,60.13
2017-08-25T23:58:22.623Z,59.85
